Weather History for K1H2 - April, 2014

Change the Weather History Date:

Sunday, April 13, 2014

  Actual Average (KMTO) Record (KMTO)
Temperature  
Mean Temperature 67 °F 53 °F  
Max Temperature 72 °F 63 °F 82 °F (1977)
Min Temperature 62 °F 42 °F 22 °F (1950)
Degree Days  
Heating Degree Days 0 13  
Month to date heating degree days 195  
Since 1 July heating degree days 5098  
Cooling Degree Days 2 0  
Month to date cooling degree days 0  
Year to date cooling degree days 1  
Growing Degree Days 17 (Base 50)    
Moisture  
Dew Point 54 °F    
Average Humidity 61    
Maximum Humidity 88    
Minimum Humidity 53    
Precipitation  
Precipitation 0.40 in 0.11 in 1.59 in (1983)
Month to date precipitation 1.26  
Year to date precipitation 7.81  
Sea Level Pressure  
Sea Level Pressure 29.74 in    
Wind  
Wind Speed 14 mph (South)    
Max Wind Speed 21 mph    
Max Gust Speed 34 mph    
Visibility 10 miles    
Events Rain    
T = Trace of Precipitation, MM = Missing Value Source: NWS Daily Summary

Daily Weather History Graph

Daily Weather History Graph

Search for Another Location

Airport or City:

Trip Planner

Search our weather history database for the weather conditions in past years. The results will help you decide how hot, cold, wet, or windy it might be!

Date:

Astronomy

Apr. 13, 2014 Rise Set
Actual Time 6:20 AM CDT 7:29 PM CDT
Civil Twilight 5:52 AM CDT 7:57 PM CDT
Nautical Twilight 5:20 AM CDT 8:29 PM CDT
Astronomical Twilight 4:45 AM CDT 9:04 PM CDT
Moon 6:07 PM CDT (4/13) 5:18 AM CDT (4/13)
Length of Visible Light 14h 04m
Length of Day
13h 09m
Waxing Gibbous, 97% of the Moon is Illuminated
Apr 13
Waxing Gibbous
Apr 15
Full
Apr 22
Last Quarter
Apr 29
New
May 6
First Quarter

Hourly Weather History & Observations

Time (CDT) Temp. Dew Point Humidity Pressure Visibility Wind Dir Wind Speed Gust Speed Precip Events Conditions
12:15 AM 67.6 °F 50.7 °F 55% 29.78 in 10.0 mi South 12.7 mph 19.6 mph N/A   Clear
12:35 AM 67.5 °F 50.5 °F 55% 29.78 in 10.0 mi SSW 13.8 mph 21.9 mph N/A   Clear
12:55 AM 67.3 °F 50.4 °F 55% 29.78 in 10.0 mi SSW 15.0 mph 20.7 mph N/A   Clear
1:15 AM 67.5 °F 50.2 °F 54% 29.78 in 10.0 mi SSW 19.6 mph 31.1 mph N/A   Clear
1:35 AM 67.5 °F 50.2 °F 54% 29.78 in 10.0 mi SSW 17.3 mph 26.5 mph N/A   Clear
1:55 AM 67.5 °F 50.2 °F 54% 29.79 in 10.0 mi SSW 17.3 mph 25.3 mph N/A   Clear
2:15 AM 67.5 °F 50.4 °F 54% 29.79 in 10.0 mi SSW 16.1 mph 19.6 mph N/A   Clear
2:35 AM 67.6 °F 50.9 °F 55% 29.80 in 10.0 mi SSW 13.8 mph 19.6 mph N/A   Clear
2:55 AM 67.6 °F 50.9 °F 55% 29.82 in 10.0 mi SW 11.5 mph 19.6 mph N/A   Clear
3:15 AM 67.1 °F 51.1 °F 56% 29.83 in 10.0 mi SW 10.4 mph 18.4 mph N/A   Clear
3:35 AM 67.1 °F 51.3 °F 57% 29.83 in 10.0 mi SW 12.7 mph - N/A   Clear
3:55 AM 66.9 °F 51.3 °F 57% 29.83 in 10.0 mi SSW 13.8 mph - N/A   Clear
4:15 AM 67.1 °F 51.4 °F 57% 29.82 in 10.0 mi SSW 13.8 mph - N/A   Clear
4:35 AM 67.1 °F 51.4 °F 57% 29.82 in 10.0 mi South 11.5 mph - N/A   Clear
4:55 AM 66.6 °F 51.6 °F 59% 29.81 in 10.0 mi South 11.5 mph 16.1 mph N/A   Clear
5:15 AM 66.6 °F 51.8 °F 59% 29.81 in 10.0 mi South 11.5 mph 19.6 mph N/A   Clear
5:35 AM 66.2 °F 51.8 °F 60% 29.81 in 10.0 mi South 11.5 mph 16.1 mph N/A   Clear
5:55 AM 66.2 °F 52.0 °F 60% 29.80 in 10.0 mi South 10.4 mph 17.3 mph N/A   Clear
6:15 AM 66.2 °F 52.0 °F 60% 29.80 in 10.0 mi South 9.2 mph - N/A   Clear
6:35 AM 66.2 °F 52.0 °F 60% 29.81 in 10.0 mi South 9.2 mph - N/A   Clear
6:55 AM 66.2 °F 52.0 °F 60% 29.81 in 7.0 mi South 10.4 mph - N/A   Mostly Cloudy
7:15 AM 66.7 °F 51.3 °F 57% 29.81 in 10.0 mi South 10.4 mph - N/A   Mostly Cloudy
7:34 AM 66.2 °F 51.8 °F 60% 29.81 in 10.0 mi South 10.4 mph 17.3 mph N/A   Scattered Clouds
7:35 AM 66.9 °F 50.7 °F 56% 29.81 in 10.0 mi South 9.2 mph 17.3 mph N/A   Scattered Clouds
7:55 AM 67.1 °F 50.7 °F 56% 29.81 in 10.0 mi South 13.8 mph 20.7 mph N/A   Mostly Cloudy
8:14 AM 68.0 °F 51.8 °F 56% 29.81 in 10.0 mi SSW 10.4 mph 18.4 mph N/A   Scattered Clouds
8:15 AM 67.6 °F 51.6 °F 56% 29.81 in 10.0 mi SSW 11.5 mph 18.4 mph N/A   Scattered Clouds
8:35 AM 68.0 °F 51.4 °F 55% 29.81 in 10.0 mi South 12.7 mph 20.7 mph N/A   Scattered Clouds
8:55 AM 67.6 °F 51.6 °F 56% 29.80 in 10.0 mi South 13.8 mph 23.0 mph N/A   Clear
9:14 AM 68.0 °F 51.8 °F 56% 29.80 in 7.0 mi South 12.7 mph 19.6 mph N/A   Clear
9:15 AM 68.0 °F 52.0 °F 56% 29.80 in 7.0 mi South 12.7 mph 19.6 mph N/A   Clear
9:35 AM 67.6 °F 52.7 °F 59% 29.81 in 10.0 mi South 15.0 mph 25.3 mph N/A   Clear
9:55 AM 67.3 °F 53.1 °F 60% 29.82 in 10.0 mi South 13.8 mph 21.9 mph N/A   Clear
10:15 AM 67.1 °F 53.6 °F 62% 29.82 in 10.0 mi South 10.4 mph 18.4 mph N/A   Clear
10:35 AM 67.3 °F 54.0 °F 62% 29.83 in 10.0 mi South 12.7 mph 18.4 mph N/A   Mostly Cloudy
10:55 AM 67.3 °F 55.0 °F 65% 29.82 in 10.0 mi South 8.1 mph 18.4 mph N/A Rain Light Rain
11:15 AM 67.3 °F 54.9 °F 64% 29.83 in 10.0 mi South 10.4 mph - N/A Rain Rain
11:35 AM 68.4 °F 54.9 °F 62% 29.81 in 10.0 mi South 11.5 mph 16.1 mph N/A   Overcast
11:55 AM 70.2 °F 55.0 °F 59% 29.80 in 10.0 mi South 10.4 mph - N/A   Overcast
12:15 PM 70.3 °F 54.7 °F 58% 29.79 in 10.0 mi South 16.1 mph 24.2 mph N/A   Overcast
12:35 PM 70.0 °F 54.5 °F 58% 29.78 in 10.0 mi South 12.7 mph 23.0 mph N/A   Overcast
12:55 PM 69.8 °F 54.5 °F 58% 29.77 in 10.0 mi South 13.8 mph 21.9 mph N/A   Overcast
1:15 PM 69.8 °F 54.7 °F 59% 29.77 in 10.0 mi South 12.7 mph 24.2 mph N/A   Overcast
1:35 PM 69.8 °F 54.9 °F 59% 29.76 in 10.0 mi South 18.4 mph 28.8 mph N/A   Overcast
1:55 PM 69.1 °F 55.2 °F 61% 29.77 in 10.0 mi South 19.6 mph 25.3 mph N/A   Overcast
2:15 PM 68.4 °F 55.6 °F 64% 29.76 in 10.0 mi South 17.3 mph 24.2 mph N/A Rain Light Rain
2:35 PM 68.7 °F 55.4 °F 62% 29.75 in 10.0 mi South 15.0 mph 20.7 mph N/A Rain Rain
2:55 PM 69.1 °F 55.0 °F 61% 29.75 in 10.0 mi South 12.7 mph 23.0 mph N/A Rain Rain
3:15 PM 69.3 °F 54.9 °F 60% 29.74 in 10.0 mi South 19.6 mph 27.6 mph N/A Rain Rain
3:35 PM 69.3 °F 54.7 °F 60% 29.73 in 10.0 mi SSW 16.1 mph 25.3 mph N/A Rain Rain
3:55 PM 69.8 °F 55.0 °F 59% 29.73 in 10.0 mi South 15.0 mph 21.9 mph N/A Rain Rain
4:35 PM 72.9 °F 55.0 °F 53% 29.70 in 10.0 mi South 15.0 mph 23.0 mph N/A Rain Rain
4:55 PM 72.0 °F 54.5 °F 54% 29.68 in 10.0 mi South 16.1 mph 24.2 mph N/A   Mostly Cloudy
5:15 PM 71.6 °F 54.9 °F 55% 29.68 in 10.0 mi South 15.0 mph 26.5 mph N/A   Overcast
5:35 PM 71.6 °F 54.7 °F 55% 29.68 in 10.0 mi South 16.1 mph 27.6 mph N/A   Overcast
5:55 PM 71.8 °F 54.7 °F 55% 29.68 in 10.0 mi South 12.7 mph 26.5 mph N/A   Mostly Cloudy
6:14 PM 71.6 °F 55.4 °F 57% 29.67 in 10.0 mi South 15.0 mph 21.9 mph N/A   Scattered Clouds
6:15 PM 71.2 °F 54.9 °F 56% 29.67 in 10.0 mi South 17.3 mph 34.5 mph N/A   Scattered Clouds
6:34 PM 71.6 °F 55.4 °F 57% 29.66 in 10.0 mi South 17.3 mph 27.6 mph N/A   Scattered Clouds
6:35 PM 71.1 °F 54.7 °F 56% 29.66 in 10.0 mi South 19.6 mph 27.6 mph N/A   Scattered Clouds
6:55 PM 70.7 °F 55.0 °F 58% 29.65 in 10.0 mi South 20.7 mph 34.5 mph N/A   Scattered Clouds
7:15 PM 70.0 °F 55.4 °F 60% 29.66 in 10.0 mi South 18.4 mph 32.2 mph N/A   Mostly Cloudy
7:34 PM 69.8 °F 55.4 °F 60% 29.65 in 10.0 mi South 19.6 mph 27.6 mph N/A   Scattered Clouds
7:35 PM 69.4 °F 55.0 °F 60% 29.65 in 10.0 mi South 17.3 mph 27.6 mph N/A   Scattered Clouds
7:55 PM 69.8 °F 55.0 °F 59% 29.64 in 10.0 mi South 18.4 mph 25.3 mph N/A   Scattered Clouds
8:15 PM 69.4 °F 55.0 °F 60% 29.63 in 10.0 mi South 12.7 mph 21.9 mph N/A   Mostly Cloudy
8:35 PM 69.3 °F 55.2 °F 61% 29.63 in 10.0 mi South 12.7 mph 19.6 mph N/A   Mostly Cloudy
8:55 PM 67.8 °F 56.5 °F 67% 29.63 in 10.0 mi South 12.7 mph 23.0 mph N/A Rain Heavy Rain
9:14 PM 66.2 °F 57.2 °F 73% 29.62 in 10.0 mi South 10.4 mph 18.4 mph N/A Rain Light Rain
9:15 PM 66.2 °F 57.6 °F 74% 29.62 in 10.0 mi South 11.5 mph 18.4 mph N/A Rain Light Rain
9:35 PM 65.3 °F 58.6 °F 79% 29.64 in 7.0 mi South 11.5 mph - 0.06 in Rain Rain
9:55 PM 64.8 °F 59.0 °F 82% 29.65 in 5.0 mi SSW 13.8 mph 24.2 mph 0.16 in Rain Heavy Rain
10:15 PM 63.5 °F 59.9 °F 88% 29.63 in 7.0 mi South 18.4 mph 25.3 mph 0.06 in Rain Rain
10:35 PM 63.5 °F 59.2 °F 86% 29.62 in 10.0 mi South 15.0 mph 24.2 mph 0.09 in Rain Rain
10:55 PM 63.0 °F 59.4 °F 88% 29.60 in 7.0 mi South 16.1 mph 27.6 mph 0.15 in Rain Heavy Rain
11:15 PM 62.6 °F 59.0 °F 88% 29.56 in 5.0 mi SW 8.1 mph - N/A Rain Rain
11:35 PM 63.7 °F 59.2 °F 85% 29.57 in 10.0 mi South 15.0 mph 29.9 mph 0.08 in Rain Rain
11:55 PM 63.7 °F 58.8 °F 84% 29.57 in 10.0 mi South 18.4 mph 27.6 mph 0.09 in Rain Light Rain